app download

Yuki ni Tsubasa

Yuki ni Tsubasa
Rating: 9.8 of 9772 person votes
Rank 1989 /20,1487
Alternative: หิมะติดปีก;雪にツバサ;
Artists: Takahashi Shin
Author(s): Takahashi Shin
Genres: RomanceDramaSchool lifeSupernaturalSeinen
Release: 2015
Status: Ongoing
Summary:

This is a story of how an esper meets a girl in a small northern town. Tsubasa lives in a dying hot springs town, and he's a mostly friendless middle school delinquent. He actually has super powers, though he thinks of them more like embarrassing and useless powers. Sure, he can use his telekinetic abilities to brush his teeth while getting dressed, or read a book while drinking tea, but for the most part, it's easier just to do stuff with his hands.
One day, though, he hears the thoughts of a mute girl, Yuki, who is targeted for rape by other delinquents, due to her silence. He comes to her aid, and finds that to his surprise, he's able to manipulate her body to beat up her attackers! Unsurprisingly, she draws the conclusion that she is the one with super powers. Since Tsubasa's the only one who "knows her secret," their story together is just beginning!

ch.021 17 Pages 2018-05-19 17:18:57
ch.020 19 Pages 2018-03-13 21:12:02
ch.012 : “…Then… and then… and then… !” 15 Pages 2017-12-17 12:39:04
ch.011 : “Heey!? Where were you!?” 19 Pages 2017-12-17 12:39:04
ch.010 : "You... What's the Matter?" 17 Pages 2017-12-17 12:39:04
ch.009 : “Meet me at the high school rear entrance at eleven, okay!?” 17 Pages 2017-12-17 12:39:04
ch.008 : "......" 28 Pages 2017-12-17 12:39:04
ch.007 : “…Where… does it hurt?” 61 Pages 2017-12-17 12:39:04
ch.006 : "...Even So, I... Want To Be Somebody That Can Help." 35 Pages 2017-12-17 12:39:04
ch.005 : …Can something so small be of help? 20 Pages 2017-12-17 12:39:04
ch.004 : X! (You Can't!) 23 Pages 2017-12-17 12:39:04
ch.003 : You're Weak, Aren't You? 29 Pages 2017-12-17 12:39:04
ch.002 : I Have ESP... Don't I? 37 Pages 2017-12-17 12:39:04
ch.018 : “. . . . . . . . . . .” 17 Pages 2017-12-16 04:54:18
ch.017 : "............" 20 Pages 2017-12-16 11:47:55
ch.016 : “……\(^?^)??)?” 17 Pages 2017-12-16 20:55:27
ch.015 : “Really, I am glad (^O^)/” 20 Pages 2017-12-17 00:25:46
ch.014 : "I'm glad. I'm glad..." 32 Pages 2017-12-17 03:25:02
ch.013 : “Ah, that would be fun.” 39 Pages 2017-12-17 04:27:00
ch.001 52 Pages 2017-12-17 12:39:04
vol.3 ch.19 : “. . . . . . . . . . . . . .” 21 Pages 2017-12-04 15:15:54
vol.3 ch.18 : “. . . . . . . . . . .” 17 Pages 2017-09-20 02:49:00
vol.3 ch.17 : "............" 20 Pages 2017-06-24 23:43:00
vol.3 ch.16 : “……\(^?^)??)?” 17 Pages 2017-04-25 02:32:00
vol.3 ch.15 : “Really, I am glad (^O^)/” 20 Pages 2017-03-16 22:42:00
vol.3 ch.14 : "I'm glad. I'm glad..." 32 Pages 2017-01-20 23:12:00
vol.2 ch.13 : “Ah, that would be fun.” 39 Pages 2016-12-10 23:42:00
vol.2 ch.12 : “…Then… and then… and then… !” 15 Pages 2016-10-22 21:57:00
vol.2 ch.11 : “Heey!? Where were you!?” 19 Pages 2016-09-19 23:12:00
vol.2 ch.10 : "You... What's the Matter?" 17 Pages 2016-07-23 20:19:00
vol.2 ch.9 : “Meet me at the high school rear entrance at eleven, okay!?” 17 Pages 2016-06-12 23:06:00
vol.2 ch.8 : "......" 28 Pages 2016-05-06 00:28:00
vol.2 ch.7 : “…Where… does it hurt?” 61 Pages 2016-03-28 00:37:00
vol.1 ch.6 : "...Even So, I... Want To Be Somebody That Can Help." 35 Pages 2016-02-21 11:16:00
vol.1 ch.5 : …Can something so small be of help? 20 Pages 2016-01-13 00:11:00
vol.1 ch.4 : X! (You Can't!) 23 Pages 2015-12-13 12:13:00
vol.1 ch.3 : You're Weak, Aren't You? 29 Pages 2015-11-15 23:21:00
vol.1 ch.2 : I Have ESP... Don't I? 37 Pages 2015-10-28 02:15:00
vol.1 ch.1 : Just the Two of Us 53 Pages 2015-10-10 06:53:00
vol.3 ch.19 v2 : “. . . . . . . . . . . . . .” 0 Pages 2017-12-16 00:33:08
vol.3 ch.19 : “. . . . . . . . . . . . . .” 0 Pages 2017-12-16 00:33:08
vol.3 ch.18 : “. . . . . . . . . . .” 0 Pages 2017-12-16 01:06:08
vol.3 ch.17 : "............" 20 Pages 2017-06-24 23:26:00
vol.3 ch.16 : “……\(^▽^)ノノ)♪” 17 Pages 2017-04-24 23:39:00
vol.3 ch.15 : “Really, I am glad (^O^)/” 20 Pages 2017-03-16 22:25:00
vol.3 ch.14 : "I'm glad. I'm glad..." 32 Pages 2017-01-20 23:03:00
vol.2 ch.12 v2 : “…Then… and then… and then… !” 15 Pages 2017-12-17 01:29:02
vol.2 ch.10 : "You... What's the Matter?" 17 Pages 2017-12-18 10:19:14
vol.2 ch.13 : “Ah, that would be fun.” 39 Pages 2016-12-10 23:35:00
vol.2 ch.9 : “Meet me at the high school rear entrance at eleven, okay!?” 17 Pages 2017-12-18 10:19:14
vol.2 ch.12 : “…Then… and then… and then… !” 15 Pages 2016-10-22 19:02:00
vol.2 ch.8 v2 : "......" 28 Pages 2017-12-18 10:19:14
vol.2 ch.11 : “Heey!? Where were you!?” 19 Pages 2016-09-19 23:05:00
vol.2 ch.8 : "......" 28 Pages 2016-05-06 18:53:00
vol.2 ch.7 v2 : "...Where...does it hurt?" 61 Pages 2017-12-17 01:29:02
vol.2 ch.7 : “…Where… does it hurt?” 61 Pages 2016-03-29 03:20:00
vol.1 ch.6 : "...Even So, I... Want To Be Somebody That Can Help." 35 Pages 2016-02-21 10:31:00
vol.1 ch.5 : "...Can Something So Small Be Of Help?" 20 Pages 2016-02-21 10:32:00
vol.1 ch.4 : X! (You Can't!) 23 Pages 2015-12-13 13:04:00
vol.1 ch.3 : You're Weak, Aren't You? 29 Pages 2015-12-13 13:05:00
vol.1 ch.2 : I Have ESP... Don't I? 37 Pages 2015-10-29 20:58:00
vol.1 ch.1 : Just The Two Of Us 53 Pages 2015-10-29 21:01:00
ch.21 17 Pages 2018-07-06 18:45:39
ch.20 19 Pages 2018-07-06 18:46:39
ch.19 21 Pages 2018-07-06 18:48:39
ch.18 17 Pages 2017-12-04 10:00:00
ch.17 20 Pages 2017-12-04 09:59:00
ch.16 17 Pages 2017-12-04 09:58:00
ch.15 20 Pages 2017-12-04 09:57:00
ch.14 32 Pages 2017-12-04 09:56:00
ch.13 39 Pages 2016-12-11 00:05:00
ch.12 15 Pages 2016-12-11 00:04:00
ch.11 19 Pages 2016-12-11 00:01:00
ch.10 17 Pages 2016-07-23 20:17:00
ch.9 17 Pages 2016-06-12 22:33:00
ch.8 28 Pages 2016-05-05 23:40:00
ch.7 61 Pages 2016-03-28 02:08:00
ch.6 35 Pages 2016-03-28 02:06:00
ch.5 20 Pages 2016-01-13 00:36:00
ch.4 23 Pages 2015-12-13 12:25:00
ch.3 29 Pages 2015-11-15 23:31:00
ch.2 37 Pages 2015-11-15 23:31:00
ch.1 52 Pages 2015-10-11 11:23:00
ch.18 : “. . . . . . . . . . .” 17 Pages 2017-09-20 02:49:00
ch.17 : "............" 20 Pages 2017-06-25 00:31:00
ch.16 : “……\(^?^)??)?” 17 Pages 2017-04-25 02:34:00
ch.15 : “Really, I am glad (^O^)/” 20 Pages 2017-03-16 22:50:00
ch.14 : "I'm glad. I'm glad..." 32 Pages 2017-01-20 23:20:00
ch.13 : “Ah, that would be fun.” 39 Pages 2016-12-11 01:09:00
ch.12 : “…Then… and then… and then… !” 15 Pages 2016-10-22 21:56:00
ch.11 : “Heey!? Where were you!?” 19 Pages 2016-09-20 00:34:00
ch.10 : "You... What's the Matter?" 17 Pages 2016-07-23 21:03:00
ch.9 : “Meet me at the high school rear entrance at eleven, okay!?” 17 Pages 2016-06-12 22:58:00
ch.8 : "......" 28 Pages 2016-05-06 04:40:00
ch.7 : “…Where… does it hurt?” 61 Pages 2016-03-28 02:57:00
ch.6 : "...Even So, I... Want To Be Somebody That Can Help." 35 Pages 2016-02-21 11:18:00
ch.5 : …Can something so small be of help? 20 Pages 2016-01-13 00:12:00
ch.4 : X! (You Can't!) 23 Pages 2016-01-13 00:11:00
ch.3 : You're Weak, Aren't You? 29 Pages 2015-11-15 23:27:00
ch.2 : I Have ESP... Don't I? 37 Pages 2015-10-29 07:52:00
ch.1 52 Pages 2015-10-10 06:17:00

RELATIVE MANGA